Time;durP1;ratioP1;P1;durP2;ratioP2;P2;SDS_P1;SDS_P2;PMS_P1;PMS_P2;Temp;Humidity;BMP_temperature;BMP_pressure;BME280_temperature;BME280_humidity;BME280_pressure;Samples;Min_cycle;Max_cycle;Signal;HPM_P1;HPM_P2
2021/01/22 00:01:59;;;;;;;17.27;9.90;;;;;;;4.38;69.84;100808.67;1784602;80;21102;-64
2021/01/22 00:04:28;;;;;;;14.20;8.00;;;;;;;4.38;69.82;100805.63;1784069;80;21107;-63
2021/01/22 00:06:56;;;;;;;17.27;9.40;;;;;;;4.39;69.77;100803.91;1764406;81;21182;-64
2021/01/22 00:09:23;;;;;;;17.77;9.23;;;;;;;4.38;69.83;100809.97;1750217;82;21155;-63
2021/01/22 00:11:51;;;;;;;16.25;9.35;;;;;;;4.38;69.77;100812.14;1751801;81;21107;-64
2021/01/22 00:14:19;;;;;;;16.15;8.85;;;;;;;4.37;69.75;100805.17;1793256;80;21122;-64
2021/01/22 00:16:47;;;;;;;15.78;9.25;;;;;;;4.38;69.76;100795.20;1788790;80;21078;-62
2021/01/22 00:19:15;;;;;;;14.00;8.45;;;;;;;4.37;69.84;100799.09;1792958;80;21176;-63
2021/01/22 00:21:42;;;;;;;15.88;8.88;;;;;;;4.39;69.80;100800.00;1788671;80;21149;-63
2021/01/22 00:24:10;;;;;;;12.80;7.87;;;;;;;4.41;69.61;100797.00;1771506;80;21156;-64
2021/01/22 00:26:38;;;;;;;15.83;8.75;;;;;;;4.42;69.54;100797.02;1746154;80;21284;-63
2021/01/22 00:29:06;;;;;;;16.45;8.95;;;;;;;4.46;69.42;100797.94;1743916;81;21177;-64
2021/01/22 00:31:33;;;;;;;17.23;9.18;;;;;;;4.36;69.67;100803.84;1772199;81;21576;-64
2021/01/22 00:34:01;;;;;;;14.60;8.90;;;;;;;4.38;69.73;100795.64;1775762;80;21150;-63
2021/01/22 00:36:29;;;;;;;15.65;8.48;;;;;;;4.35;69.85;100795.58;1791272;80;21271;-63
2021/01/22 00:38:56;;;;;;;17.02;9.58;;;;;;;4.38;69.55;100798.24;1777225;80;21549;-64
2021/01/22 00:41:24;;;;;;;16.35;9.38;;;;;;;4.32;69.70;100801.59;1794215;80;21206;-64
2021/01/22 00:43:52;;;;;;;17.48;9.23;;;;;;;4.34;69.59;100804.23;1789025;80;21145;-63
2021/01/22 00:46:20;;;;;;;13.72;8.40;;;;;;;4.31;69.62;100800.72;1795986;80;21163;-62
2021/01/22 00:48:48;;;;;;;17.85;9.45;;;;;;;4.35;69.37;100804.70;1795583;80;21171;-63
2021/01/22 00:51:15;;;;;;;18.10;9.63;;;;;;;4.27;69.51;100800.61;1758199;81;21156;-63
2021/01/22 00:53:43;;;;;;;18.30;9.83;;;;;;;4.33;69.28;100798.13;1773558;81;21121;-63
2021/01/22 00:56:11;;;;;;;15.20;9.43;;;;;;;4.30;69.15;100794.16;1773638;81;21145;-63
2021/01/22 00:58:40;;;;;;;12.73;7.80;;;;;;;4.25;69.24;100798.39;1772510;81;21170;-63
2021/01/22 01:01:25;;;;;;;17.40;9.33;;;;;;;4.24;69.22;100792.73;1813036;77;22193;-61
2021/01/22 01:03:53;;;;;;;14.45;8.63;;;;;;;4.21;69.26;100799.17;1756520;80;21153;-62
2021/01/22 01:06:22;;;;;;;14.93;9.40;;;;;;;4.24;69.06;100796.64;1768274;80;21130;-62
2021/01/22 01:08:52;;;;;;;16.50;8.53;;;;;;;4.18;69.01;100796.09;1786704;80;21142;-63
2021/01/22 01:11:38;;;;;;;14.80;8.75;;;;;;;4.20;68.94;100786.59;1793496;79;21441;-65
2021/01/22 01:14:24;;;;;;;16.00;8.73;;;;;;;4.14;68.93;100788.66;1793240;80;21158;-63
2021/01/22 01:16:51;;;;;;;13.38;8.10;;;;;;;4.14;68.75;100786.46;1792165;80;21135;-63
2021/01/22 01:19:19;;;;;;;20.35;9.75;;;;;;;4.11;68.74;100786.39;1796444;79;21154;-64
2021/01/22 01:21:46;;;;;;;14.70;9.03;;;;;;;4.07;68.83;100787.17;1787485;80;21125;-62
2021/01/22 01:24:14;;;;;;;15.88;8.90;;;;;;;4.04;68.72;100789.71;1766679;80;21276;-63
2021/01/22 01:26:42;;;;;;;12.98;8.05;;;;;;;4.02;68.68;100783.19;1784283;80;21142;-64
2021/01/22 01:29:10;;;;;;;12.82;8.23;;;;;;;4.03;68.54;100787.55;1791871;79;21149;-62
2021/01/22 01:31:38;;;;;;;15.60;8.65;;;;;;;4.00;68.37;100790.09;1793081;80;21158;-62
2021/01/22 01:34:06;;;;;;;18.40;8.93;;;;;;;3.96;68.28;100792.16;1785827;80;21138;-62
2021/01/22 01:36:34;;;;;;;13.45;8.15;;;;;;;3.92;68.28;100788.63;1788729;80;21118;-62
2021/01/22 01:39:04;;;;;;;17.67;9.28;;;;;;;3.90;68.29;100783.81;1797285;79;21264;-63
2021/01/22 01:41:33;;;;;;;16.52;10.10;;;;;;;3.90;68.19;100780.31;1766330;80;21659;-62
2021/01/22 01:44:02;;;;;;;13.98;8.80;;;;;;;3.87;68.11;100776.79;1776968;80;21142;-64
2021/01/22 01:46:30;;;;;;;18.80;9.68;;;;;;;3.85;68.03;100772.41;1769056;79;21170;-62
2021/01/22 01:48:59;;;;;;;18.23;9.83;;;;;;;3.81;67.88;100773.19;1783045;80;21139;-63
2021/01/22 01:51:26;;;;;;;18.02;10.38;;;;;;;3.79;67.75;100769.67;1763705;80;21127;-64
2021/01/22 01:53:54;;;;;;;18.12;9.23;;;;;;;3.76;67.68;100776.11;1755029;81;21147;-63
2021/01/22 01:56:22;;;;;;;15.35;8.75;;;;;;;3.70;67.59;100775.13;1691826;83;21204;-64
2021/01/22 01:58:49;;;;;;;13.68;7.85;;;;;;;3.67;67.55;100775.05;1699320;84;21154;-62
2021/01/22 02:01:18;;;;;;;16.05;8.88;;;;;;;3.64;67.50;100771.52;1697456;83;21153;-62
2021/01/22 02:03:45;;;;;;;17.10;8.75;;;;;;;3.61;67.52;100770.14;1785747;80;21150;-62
2021/01/22 02:06:13;;;;;;;17.65;9.70;;;;;;;3.58;67.48;100763.13;1779991;79;21119;-62
2021/01/22 02:08:41;;;;;;;21.48;10.82;;;;;;;3.57;67.49;100763.56;1787751;80;21158;-64
2021/01/22 02:11:10;;;;;;;19.77;9.83;;;;;;;3.55;67.32;100762.65;1782239;80;21165;-64
2021/01/22 02:13:38;;;;;;;13.68;8.53;;;;;;;3.54;67.33;100760.89;1785353;80;21174;-62
2021/01/22 02:16:08;;;;;;;13.95;8.40;;;;;;;3.52;67.10;100757.81;1760502;80;21565;-62
2021/01/22 02:18:36;;;;;;;14.30;8.78;;;;;;;3.49;67.14;100758.60;1739046;82;21258;-64
2021/01/22 02:21:21;;;;;;;20.10;9.30;;;;;;;3.49;67.17;100756.44;1786191;80;21358;-64
2021/01/22 02:23:50;;;;;;;22.10;10.68;;;;;;;3.48;67.17;100755.98;1786414;79;21490;-62
2021/01/22 02:26:31;;;;;;;16.37;9.50;;;;;;;3.50;67.11;100751.69;1787158;80;21139;-64
2021/01/22 02:29:02;;;;;;;16.32;8.78;;;;;;;3.44;67.20;100753.70;1779358;80;21119;-62
2021/01/22 02:31:31;;;;;;;15.78;9.68;;;;;;;3.35;67.22;100750.89;1774590;79;21187;-62
2021/01/22 02:34:04;;;;;;;17.32;9.40;;;;;;;3.35;67.25;100756.98;1783847;79;21151;-62
2021/01/22 02:36:34;;;;;;;15.85;9.50;;;;;;;3.38;67.15;100744.45;1754480;82;21188;-62
2021/01/22 02:39:04;;;;;;;17.98;9.25;;;;;;;3.37;67.07;100746.60;1782134;80;21154;-62
2021/01/22 02:41:32;;;;;;;17.90;9.90;;;;;;;3.37;67.08;100740.09;1768143;79;21269;-62
2021/01/22 02:44:02;;;;;;;16.97;9.23;;;;;;;3.31;67.26;100751.25;1787124;80;21127;-64
2021/01/22 02:46:30;;;;;;;14.50;8.40;;;;;;;3.27;67.41;100741.20;1786459;80;21530;-63
2021/01/22 02:48:59;;;;;;;18.30;9.25;;;;;;;3.27;67.35;100741.20;1787218;80;21178;-62
2021/01/22 02:51:28;;;;;;;25.65;12.28;;;;;;;3.34;67.26;100738.72;1774747;80;21118;-62
2021/01/22 02:53:56;;;;;;;20.15;9.63;;;;;;;3.37;67.24;100741.39;1787134;80;21142;-62
2021/01/22 02:56:50;;;;;;;15.75;8.23;;;;;;;3.36;67.29;100737.93;1785518;80;21134;-62
2021/01/22 02:59:42;;;;;;;14.18;8.60;;;;;;;3.39;67.20;100739.30;1789216;79;21289;-62
2021/01/22 03:02:33;;;;;;;15.78;8.43;;;;;;;3.39;67.00;100740.61;1794004;79;21146;-64
2021/01/22 03:05:04;;;;;;;16.52;8.75;;;;;;;3.34;67.26;100735.71;1786327;80;21585;-64
2021/01/22 03:07:39;;;;;;;16.07;9.00;;;;;;;3.33;67.10;100726.15;1787192;80;21142;-62
2021/01/22 03:10:09;;;;;;;13.93;8.45;;;;;;;3.33;67.10;100730.05;1770804;79;21127;-64
2021/01/22 03:12:36;;;;;;;14.25;7.33;;;;;;;3.35;66.88;100729.66;1758436;80;21519;-62
2021/01/22 03:15:05;;;;;;;13.08;8.05;;;;;;;3.35;66.84;100728.37;1744509;82;21299;-62
2021/01/22 03:17:34;;;;;;;15.37;8.60;;;;;;;3.36;66.84;100731.83;1763631;79;21551;-62
2021/01/22 03:20:05;;;;;;;15.65;8.35;;;;;;;3.35;66.66;100736.17;1796305;79;21151;-64
2021/01/22 03:22:33;;;;;;;14.50;8.10;;;;;;;3.38;66.63;100729.73;1781285;80;21273;-65
2021/01/22 03:25:00;;;;;;;15.03;8.55;;;;;;;3.37;66.51;100721.47;1788902;80;21485;-62
2021/01/22 03:27:28;;;;;;;13.80;7.55;;;;;;;3.41;66.27;100726.31;1780006;79;21281;-62
2021/01/22 03:29:55;;;;;;;14.00;7.12;;;;;;;3.34;66.24;100717.91;1777526;80;21281;-62
2021/01/22 03:32:23;;;;;;;11.68;7.00;;;;;;;3.33;66.41;100717.45;1774774;80;21158;-62
2021/01/22 03:34:51;;;;;;;17.52;8.00;;;;;;;3.35;66.45;100726.17;1775336;80;21163;-63
2021/01/22 03:37:19;;;;;;;14.07;8.50;;;;;;;3.37;66.42;100725.37;1772169;79;21277;-62
2021/01/22 03:39:46;;;;;;;11.12;7.03;;;;;;;3.39;66.42;100719.78;1756123;82;21159;-64
2021/01/22 03:42:14;;;;;;;14.23;7.47;;;;;;;3.43;66.23;100723.32;1773534;80;21107;-62
2021/01/22 03:44:42;;;;;;;12.88;7.70;;;;;;;3.45;66.14;100722.94;1785831;80;21304;-64
2021/01/22 03:47:09;;;;;;;12.98;8.05;;;;;;;3.46;66.06;100732.50;1783309;80;21134;-61
2021/01/22 03:49:37;;;;;;;12.60;6.97;;;;;;;3.44;65.87;100733.33;1787090;80;21143;-63
2021/01/22 03:52:05;;;;;;;14.80;9.10;;;;;;;3.44;65.85;100728.13;1774986;80;21120;-64
2021/01/22 03:54:32;;;;;;;13.90;8.23;;;;;;;3.41;65.82;100723.71;1775257;79;21152;-62
2021/01/22 03:56:59;;;;;;;15.88;8.70;;;;;;;3.47;65.86;100722.55;1756005;82;21176;-62
2021/01/22 03:59:28;;;;;;;14.28;7.78;;;;;;;3.55;65.84;100726.61;1762542;80;21209;-64
2021/01/22 04:01:56;;;;;;;13.35;7.70;;;;;;;3.64;65.77;100720.31;1785112;80;21138;-62
2021/01/22 04:04:24;;;;;;;13.30;7.22;;;;;;;3.68;65.62;100720.84;1777187;80;21154;-63
2021/01/22 04:06:53;;;;;;;14.98;8.50;;;;;;;3.72;65.42;100723.11;1783427;80;21182;-63
2021/01/22 04:09:21;;;;;;;12.63;7.22;;;;;;;3.76;65.33;100719.69;1779033;80;21244;-64
2021/01/22 04:11:48;;;;;;;15.58;8.18;;;;;;;3.85;65.20;100724.23;1755838;80;21139;-64
2021/01/22 04:14:16;;;;;;;13.10;7.40;;;;;;;3.88;65.03;100725.60;1790510;80;21555;-62
2021/01/22 04:16:44;;;;;;;13.28;6.85;;;;;;;3.91;65.03;100729.98;1794964;80;21127;-62
2021/01/22 04:19:11;;;;;;;13.53;7.35;;;;;;;3.94;64.78;100735.25;1783043;80;21446;-62
2021/01/22 04:21:39;;;;;;;13.68;8.25;;;;;;;3.92;64.52;100729.13;1782445;80;21115;-64
2021/01/22 04:24:07;;;;;;;12.75;7.87;;;;;;;3.94;64.64;100729.64;1782356;80;21585;-64
2021/01/22 04:26:35;;;;;;;17.40;9.18;;;;;;;3.93;64.64;100729.59;1783564;80;21170;-64
2021/01/22 04:29:03;;;;;;;15.90;8.43;;;;;;;3.92;64.75;100740.45;1784652;80;21126;-64
2021/01/22 04:31:31;;;;;;;14.23;8.55;;;;;;;3.92;64.67;100735.64;1781365;80;21128;-63
2021/01/22 04:33:58;;;;;;;15.75;7.97;;;;;;;3.91;64.44;100738.69;1753978;82;21171;-63
2021/01/22 04:36:26;;;;;;;15.55;9.00;;;;;;;3.88;64.31;100750.34;1759985;80;21123;-64
2021/01/22 04:38:54;;;;;;;17.77;9.33;;;;;;;3.86;64.22;100737.71;1754023;82;21289;-63
2021/01/22 04:41:21;;;;;;;18.05;8.75;;;;;;;3.82;64.26;100726.33;1783546;80;21162;-62
2021/01/22 04:43:49;;;;;;;15.28;8.58;;;;;;;3.78;64.35;100726.25;1783715;80;21166;-64
2021/01/22 04:46:17;;;;;;;13.85;7.53;;;;;;;3.76;64.41;100725.33;1783235;80;21168;-64
2021/01/22 04:48:44;;;;;;;18.23;9.08;;;;;;;3.76;64.45;100723.59;1785059;80;21169;-62
2021/01/22 04:51:12;;;;;;;12.90;7.45;;;;;;;3.83;64.37;100722.02;1754474;80;21636;-64
2021/01/22 04:53:39;;;;;;;20.40;10.65;;;;;;;3.88;64.32;100725.60;1753929;82;21163;-62
2021/01/22 04:56:07;;;;;;;26.00;11.00;;;;;;;3.93;64.25;100729.19;1781477;80;21547;-63
2021/01/22 04:58:38;;;;;;;19.07;9.50;;;;;;;3.95;64.17;100726.19;1782692;80;21554;-64
2021/01/22 05:01:06;;;;;;;23.15;10.68;;;;;;;3.93;64.07;100722.67;1778361;80;21170;-64
2021/01/22 05:03:34;;;;;;;19.05;9.88;;;;;;;3.91;63.94;100726.07;1778346;81;21146;-64
2021/01/22 05:06:04;;;;;;;20.57;10.10;;;;;;;3.87;63.93;100730.35;1776662;80;21167;-65
2021/01/22 05:08:31;;;;;;;15.60;9.10;;;;;;;3.83;63.92;100725.48;1773552;80;21099;-62
2021/01/22 05:10:59;;;;;;;17.45;9.55;;;;;;;3.80;64.01;100724.55;1765875;81;21175;-64
2021/01/22 05:13:26;;;;;;;15.93;8.83;;;;;;;3.80;64.02;100730.62;1772462;80;21513;-63
2021/01/22 05:16:13;;;;;;;14.95;7.90;;;;;;;3.87;63.69;100723.84;1727828;82;21127;-63
2021/01/22 05:18:45;;;;;;;13.25;8.30;;;;;;;3.85;63.62;100725.53;1764663;81;21128;-63
2021/01/22 05:21:12;;;;;;;17.87;10.28;;;;;;;3.86;63.65;100720.78;1774427;81;21558;-62
2021/01/22 05:23:41;;;;;;;13.85;8.70;;;;;;;3.87;63.69;100729.91;1764094;80;21265;-63
2021/01/22 05:26:10;;;;;;;15.32;8.90;;;;;;;3.90;63.63;100721.71;1731300;82;21155;-63
2021/01/22 05:28:45;;;;;;;19.23;10.45;;;;;;;3.93;63.61;100727.88;1766059;81;21103;-62
2021/01/22 05:31:16;;;;;;;16.02;9.55;;;;;;;3.96;63.56;100717.94;1764804;81;21640;-64
2021/01/22 05:33:58;;;;;;;17.32;10.28;;;;;;;3.93;63.59;100721.37;1770119;81;21162;-63
2021/01/22 05:36:30;;;;;;;18.23;10.15;;;;;;;3.96;63.84;100714.03;1726852;82;21279;-63
2021/01/22 05:39:00;;;;;;;20.62;10.82;;;;;;;4.01;63.64;100721.08;1770073;80;21122;-63
2021/01/22 05:41:30;;;;;;;17.93;10.93;;;;;;;4.02;63.53;100720.66;1762330;81;21182;-63
2021/01/22 05:43:58;;;;;;;22.75;12.35;;;;;;;3.99;63.51;100720.16;1731352;82;21155;-63
2021/01/22 05:46:28;;;;;;;20.23;10.05;;;;;;;4.00;63.59;100727.12;1771154;81;21143;-63
2021/01/22 05:49:12;;;;;;;17.87;9.48;;;;;;;4.07;63.51;100720.34;1779132;81;21281;-63
2021/01/22 05:51:41;;;;;;;13.93;8.95;;;;;;;4.10;63.49;100719.50;1776323;81;21139;-62
2021/01/22 05:54:09;;;;;;;14.58;8.38;;;;;;;4.06;63.61;100715.98;1774280;80;21305;-62
2021/01/22 05:56:36;;;;;;;14.38;8.48;;;;;;;4.14;63.57;100721.33;1777340;81;21278;-63
2021/01/22 05:59:14;;;;;;;15.48;8.08;;;;;;;4.15;63.59;100723.09;1770168;81;21136;-62
2021/01/22 06:01:42;;;;;;;15.53;9.63;;;;;;;4.09;63.67;100712.13;1769075;79;21162;-62
2021/01/22 06:04:11;;;;;;;18.65;9.85;;;;;;;4.19;63.55;100717.09;1771647;80;21103;-63
2021/01/22 06:06:38;;;;;;;15.93;9.23;;;;;;;4.20;63.61;100720.14;1771791;81;21143;-64
2021/01/22 06:09:07;;;;;;;16.15;9.18;;;;;;;4.20;63.57;100718.84;1771072;80;21163;-62
2021/01/22 06:11:37;;;;;;;14.33;8.90;;;;;;;4.22;63.55;100711.94;1760481;79;21139;-64
2021/01/22 06:14:07;;;;;;;16.40;9.45;;;;;;;4.11;63.65;100716.05;1764692;81;21253;-62
2021/01/22 06:16:35;;;;;;;18.35;10.28;;;;;;;4.07;63.78;100712.93;1774321;81;21171;-63
2021/01/22 06:19:06;;;;;;;24.40;13.13;;;;;;;4.07;63.79;100714.23;1773366;81;21139;-64
2021/01/22 06:22:00;;;;;;;23.38;14.53;;;;;;;4.07;63.80;100712.52;1755098;79;21134;-64
2021/01/22 06:24:28;;;;;;;22.65;14.45;;;;;;;4.09;63.75;100706.02;1768762;81;21289;-63
2021/01/22 06:26:56;;;;;;;18.50;10.72;;;;;;;4.08;63.82;100714.69;1771530;81;21127;-65
2021/01/22 06:29:24;;;;;;;15.93;9.75;;;;;;;4.09;63.86;100701.71;1760701;80;21103;-64
2021/01/22 06:31:52;;;;;;;16.60;9.25;;;;;;;4.10;64.04;100709.98;1754781;81;21159;-65
2021/01/22 06:34:21;;;;;;;32.40;13.80;;;;;;;4.18;63.92;100714.47;1757542;81;21700;-65
2021/01/22 06:36:49;;;;;;;57.10;25.10;;;;;;;4.14;63.92;100722.22;1761642;81;21231;-66
2021/01/22 06:39:17;;;;;;;18.40;10.40;;;;;;;4.15;63.89;100715.27;1754061;81;21151;-62
2021/01/22 06:41:44;;;;;;;15.83;8.60;;;;;;;4.22;63.96;100721.47;1770794;81;21167;-63
2021/01/22 06:44:12;;;;;;;15.38;8.68;;;;;;;4.22;63.69;100723.66;1771780;80;21175;-62
2021/01/22 06:46:42;;;;;;;12.63;7.58;;;;;;;4.24;64.24;100717.16;1772279;81;21166;-65
2021/01/22 06:49:09;;;;;;;12.07;7.80;;;;;;;4.25;63.91;100721.12;1755439;81;21261;-62
2021/01/22 06:51:37;;;;;;;11.78;7.25;;;;;;;4.26;63.69;100726.78;1773604;80;21154;-66
2021/01/22 06:54:16;;;;;;;14.05;8.28;;;;;;;4.29;63.71;100720.73;1771657;80;21119;-63
2021/01/22 06:57:00;;;;;;;12.63;7.67;;;;;;;4.30;63.66;100718.18;1762278;79;21610;-63
2021/01/22 06:59:34;;;;;;;14.18;8.18;;;;;;;4.28;63.53;100721.17;1757478;80;21175;-64
2021/01/22 07:02:00;;;;;;;18.30;10.08;;;;;;;4.32;63.66;100719.49;1755141;81;21120;-64
2021/01/22 07:04:43;;;;;;;13.83;8.43;;;;;;;4.40;63.45;100727.04;1740785;82;21301;-64
2021/01/22 07:07:11;;;;;;;13.60;8.15;;;;;;;4.50;63.51;100723.30;1773246;80;21150;-65
2021/01/22 07:09:49;;;;;;;15.65;8.73;;;;;;;4.53;63.41;100724.22;1771935;81;21162;-65
2021/01/22 07:12:38;;;;;;;15.48;8.68;;;;;;;4.58;63.31;100721.28;1770494;81;21151;-64
2021/01/22 07:15:25;;;;;;;15.83;8.93;;;;;;;4.65;63.11;100715.73;1770899;80;21118;-64
2021/01/22 07:18:01;;;;;;;14.60;8.68;;;;;;;4.73;63.04;100714.14;1759556;81;21146;-66
2021/01/22 07:20:29;;;;;;;13.03;8.45;;;;;;;4.76;62.89;100714.20;1753273;81;21172;-63
2021/01/22 07:22:59;;;;;;;14.47;8.50;;;;;;;4.85;62.84;100714.80;1743559;82;21190;-64
2021/01/22 07:25:38;;;;;;;14.15;8.30;;;;;;;4.91;62.82;100709.66;1777482;80;21143;-65
2021/01/22 07:28:22;;;;;;;14.10;8.40;;;;;;;4.96;62.73;100712.36;1782417;80;21276;-64
2021/01/22 07:30:50;;;;;;;19.32;10.60;;;;;;;5.02;62.64;100721.59;1765186;80;21151;-65
2021/01/22 07:33:36;;;;;;;17.87;10.08;;;;;;;5.15;62.62;100721.35;1775731;81;21107;-66
2021/01/22 07:36:14;;;;;;;16.35;9.65;;;;;;;5.24;62.48;100714.52;1777143;81;21168;-65
2021/01/22 07:38:42;;;;;;;26.50;12.15;;;;;;;5.06;62.87;100718.59;1759407;81;21561;-66
2021/01/22 07:41:10;;;;;;;19.70;10.18;;;;;;;5.13;62.88;100718.25;1722669;83;21138;-65
2021/01/22 07:43:39;;;;;;;17.05;10.82;;;;;;;5.15;62.91;100728.28;1723066;83;21166;-66
2021/01/22 07:46:11;;;;;;;22.20;13.18;;;;;;;5.20;62.83;100715.78;1737810;81;21132;-66
2021/01/22 07:48:40;;;;;;;17.48;10.25;;;;;;;5.34;62.54;100705.53;1758871;81;21144;-65
2021/01/22 07:51:36;;;;;;;15.43;9.20;;;;;;;5.26;62.44;100708.45;1722654;83;21147;-66
2021/01/22 07:54:04;;;;;;;14.83;9.50;;;;;;;5.32;62.46;100707.25;1749239;81;21542;-64
2021/01/22 07:56:35;;;;;;;14.83;7.85;;;;;;;5.46;62.53;100709.19;1761710;81;21174;-64
2021/01/22 07:59:05;;;;;;;20.35;12.45;;;;;;;5.53;62.39;100704.91;1763163;81;21099;-64
2021/01/22 08:01:33;;;;;;;19.92;13.78;;;;;;;5.56;62.19;100699.29;1757097;82;21174;-66
2021/01/22 08:04:01;;;;;;;17.45;10.63;;;;;;;5.59;62.29;100705.00;1754836;81;21210;-66
2021/01/22 08:06:29;;;;;;;15.90;10.32;;;;;;;5.64;62.15;100700.27;1747548;82;21187;-65
2021/01/22 08:09:11;;;;;;;13.88;9.10;;;;;;;5.77;61.69;100695.22;1758415;81;21150;-66
2021/01/22 08:11:37;;;;;;;17.12;9.25;;;;;;;5.75;61.25;100691.70;1742694;82;21139;-65
2021/01/22 08:14:04;;;;;;;14.55;8.88;;;;;;;5.78;61.33;100690.00;1737685;82;21124;-64
2021/01/22 08:16:32;;;;;;;20.37;10.70;;;;;;;5.76;61.22;100689.09;1750591;81;21137;-65
2021/01/22 08:19:01;;;;;;;16.97;10.13;;;;;;;5.74;61.32;100693.42;1771713;81;21143;-66
2021/01/22 08:21:31;;;;;;;23.07;12.10;;;;;;;5.72;61.54;100688.64;1755901;81;21179;-65
2021/01/22 08:23:59;;;;;;;17.35;9.45;;;;;;;5.74;61.71;100697.34;1749718;82;21126;-64
2021/01/22 08:26:36;;;;;;;20.10;13.08;;;;;;;5.86;61.56;100699.67;1807052;77;28484;-64
2021/01/22 08:29:04;;;;;;;16.05;10.18;;;;;;;5.95;61.58;100701.98;1765661;80;21091;-63
2021/01/22 08:31:32;;;;;;;13.78;9.20;;;;;;;6.06;61.47;100702.14;1699244;84;21169;-66
2021/01/22 08:34:00;;;;;;;12.05;7.50;;;;;;;6.14;61.32;100713.11;1703735;83;21471;-66
2021/01/22 08:36:29;;;;;;;12.82;7.85;;;;;;;6.17;60.67;100704.86;1724562;83;21158;-66
2021/01/22 08:38:57;;;;;;;13.58;8.48;;;;;;;6.36;60.89;100707.23;1690182;84;21179;-66
2021/01/22 08:41:26;;;;;;;11.03;7.22;;;;;;;6.40;60.81;100700.33;1715509;83;21599;-66
2021/01/22 08:43:54;;;;;;;13.78;8.40;;;;;;;6.53;60.75;100705.23;1696775;84;21174;-67
2021/01/22 08:46:23;;;;;;;12.23;7.90;;;;;;;6.49;60.16;100703.45;1697351;83;21164;-66
2021/01/22 08:48:51;;;;;;;11.95;7.72;;;;;;;6.53;60.24;100704.78;1703984;83;21163;-66
2021/01/22 08:51:36;;;;;;;13.93;7.65;;;;;;;6.53;59.94;100701.31;1725652;83;21328;-66
2021/01/22 08:54:01;;;;;;;15.18;9.08;;;;;;;6.55;59.93;100708.74;1716089;83;21147;-69
2021/01/22 08:56:29;;;;;;;19.67;10.23;;;;;;;6.62;60.09;100699.20;1696706;84;21178;-64
2021/01/22 08:59:09;;;;;;;29.02;14.18;;;;;;;6.62;60.00;100695.28;1713973;83;21157;-65
2021/01/22 09:01:56;;;;;;;17.27;10.85;;;;;;;6.64;59.98;100695.72;1713676;83;21202;-65
2021/01/22 09:04:29;;;;;;;14.10;9.63;;;;;;;6.61;59.84;100688.30;1699778;83;21194;-69
2021/01/22 09:06:59;;;;;;;14.13;10.00;;;;;;;6.58;59.68;100693.08;1702828;83;21268;-69
2021/01/22 09:09:48;;;;;;;13.58;9.00;;;;;;;6.77;59.67;100689.30;1711296;83;21185;-69
2021/01/22 09:12:20;;;;;;;12.73;7.67;;;;;;;6.67;59.87;100688.35;1701992;83;21127;-65
2021/01/22 09:14:55;;;;;;;12.25;8.13;;;;;;;6.67;59.66;100686.59;1708519;83;21161;-70
2021/01/22 09:17:39;;;;;;;12.40;7.67;;;;;;;6.65;59.21;100685.70;1712530;83;21158;-70
2021/01/22 09:20:25;;;;;;;11.97;8.10;;;;;;;6.66;59.37;100682.23;1712880;83;21190;-67
2021/01/22 09:22:55;;;;;;;14.40;8.48;;;;;;;6.70;59.44;100681.39;1699557;83;21115;-72
2021/01/22 09:25:26;;;;;;;12.63;8.33;;;;;;;6.80;59.27;100685.41;1695479;83;21231;-66
2021/01/22 09:27:54;;;;;;;14.25;8.48;;;;;;;6.84;58.91;100681.50;1692831;85;21199;-67
2021/01/22 09:30:25;;;;;;;14.55;8.45;;;;;;;6.91;58.86;100672.39;1692483;85;21220;-67
2021/01/22 09:32:54;;;;;;;10.78;7.33;;;;;;;7.02;58.73;100672.05;1707712;83;21649;-69
2021/01/22 09:35:25;;;;;;;10.47;7.50;;;;;;;7.05;58.43;100667.29;1715127;83;21162;-68
2021/01/22 09:37:53;;;;;;;12.55;7.70;;;;;;;7.13;58.52;100674.73;1697148;83;21438;-67
2021/01/22 09:40:21;;;;;;;11.10;7.50;;;;;;;7.17;58.36;100669.10;1725384;82;21614;-67
2021/01/22 09:42:49;;;;;;;11.48;7.78;;;;;;;7.20;58.22;100662.58;1711159;83;21174;-68
2021/01/22 09:45:17;;;;;;;13.18;7.50;;;;;;;7.23;57.76;100668.70;1696444;84;21190;-68
2021/01/22 09:47:45;;;;;;;13.13;7.55;;;;;;;7.32;57.73;100663.94;1696460;84;21178;-68
2021/01/22 09:50:15;;;;;;;10.45;7.42;;;;;;;7.37;57.71;100659.61;1703857;83;21150;-68
2021/01/22 09:52:42;;;;;;;12.88;7.60;;;;;;;7.49;57.16;100657.51;1711945;83;21671;-67
2021/01/22 09:55:16;;;;;;;13.18;8.15;;;;;;;7.55;57.29;100652.72;1712693;83;21603;-67
2021/01/22 09:57:44;;;;;;;10.60;6.50;;;;;;;7.51;57.30;100664.05;1714207;83;21554;-68
2021/01/22 10:00:17;;;;;;;12.47;7.58;;;;;;;7.53;57.22;100659.69;1706410;83;21606;-69
2021/01/22 10:02:44;;;;;;;12.50;7.30;;;;;;;7.57;57.23;100657.53;1703530;83;21526;-67
2021/01/22 10:05:13;;;;;;;11.65;7.12;;;;;;;7.59;57.01;100660.58;1715365;82;21133;-68
2021/01/22 10:07:41;;;;;;;10.98;6.97;;;;;;;7.66;57.25;100651.45;1706069;83;21135;-68
2021/01/22 10:10:11;;;;;;;9.55;6.97;;;;;;;7.70;57.18;100647.97;1696168;84;21187;-68
2021/01/22 10:12:39;;;;;;;10.43;6.92;;;;;;;7.77;57.04;100639.69;1686576;85;21296;-69
2021/01/22 10:15:08;;;;;;;11.75;7.15;;;;;;;7.83;56.99;100639.71;1707223;84;21580;-69
2021/01/22 10:17:36;;;;;;;11.50;7.28;;;;;;;7.90;56.69;100634.94;1707722;84;21163;-68
2021/01/22 10:20:07;;;;;;;15.53;6.80;;;;;;;7.94;56.14;100635.84;1698596;84;21187;-69
2021/01/22 10:22:34;;;;;;;9.63;6.73;;;;;;;8.02;56.21;100631.05;1680264;84;21607;-69
2021/01/22 10:25:04;;;;;;;9.98;7.22;;;;;;;8.03;55.87;100621.42;1686503;85;21194;-69
2021/01/22 10:27:32;;;;;;;11.12;6.67;;;;;;;8.08;55.83;100620.14;1741479;81;21163;-70
2021/01/22 10:29:59;;;;;;;9.70;6.42;;;;;;;8.11;55.80;100614.45;1753629;82;21542;-70
2021/01/22 10:32:28;;;;;;;10.48;6.37;;;;;;;8.15;55.62;100613.58;1665515;85;21173;-68
2021/01/22 10:34:56;;;;;;;9.13;6.08;;;;;;;8.23;55.58;100612.27;1726470;82;21182;-70
2021/01/22 10:37:24;;;;;;;10.03;6.33;;;;;;;8.23;55.34;100612.27;1726507;83;21151;-67
2021/01/22 10:39:52;;;;;;;10.58;6.08;;;;;;;8.32;55.11;100604.88;1727052;82;21163;-69
2021/01/22 10:42:19;;;;;;;9.03;6.58;;;;;;;8.31;54.65;100602.67;1726256;82;21158;-68
2021/01/22 10:44:47;;;;;;;10.63;7.35;;;;;;;8.36;55.16;100599.17;1735183;82;21480;-69
2021/01/22 10:47:15;;;;;;;10.35;6.67;;;;;;;8.39;54.96;100588.69;1745683;82;21146;-68
2021/01/22 10:49:45;;;;;;;11.53;6.90;;;;;;;8.42;54.94;100582.98;1722509;83;21169;-68
2021/01/22 10:52:12;;;;;;;9.53;5.92;;;;;;;8.46;54.77;100578.19;1724491;83;21314;-67
2021/01/22 10:54:40;;;;;;;10.15;6.40;;;;;;;8.53;54.62;100565.99;1745191;82;21296;-68
2021/01/22 10:57:08;;;;;;;10.50;5.67;;;;;;;8.58;54.57;100560.73;1673602;85;21320;-67
2021/01/22 10:59:36;;;;;;;10.25;5.85;;;;;;;8.61;54.10;100563.34;1734617;82;21607;-67
2021/01/22 11:02:08;;;;;;;12.95;6.65;;;;;;;8.64;53.98;100551.54;1709691;82;21166;-68
2021/01/22 11:04:36;;;;;;;9.90;6.20;;;;;;;8.68;54.15;100549.34;1742325;82;21204;-69
2021/01/22 11:07:04;;;;;;;10.85;6.17;;;;;;;8.68;54.01;100541.48;1711466;83;21569;-68
2021/01/22 11:09:33;;;;;;;8.78;6.03;;;;;;;8.65;54.02;100543.22;1738165;82;21177;-67
2021/01/22 11:12:08;;;;;;;10.43;6.58;;;;;;;8.56;54.00;100541.06;1756336;82;21166;-66
2021/01/22 11:14:35;;;;;;;9.38;7.08;;;;;;;8.45;54.20;100538.40;1756355;82;21590;-67
2021/01/22 11:17:03;;;;;;;8.93;6.00;;;;;;;8.41;54.14;100522.23;1740636;82;21135;-68
2021/01/22 11:19:31;;;;;;;10.88;7.25;;;;;;;8.34;54.11;100526.61;1673132;85;21600;-66
2021/01/22 11:21:59;;;;;;;9.90;6.20;;;;;;;8.27;54.25;100529.25;1739228;82;21096;-66
2021/01/22 11:24:26;;;;;;;10.05;6.50;;;;;;;8.25;54.48;100523.13;1753799;82;21143;-66
2021/01/22 11:26:57;;;;;;;11.00;6.85;;;;;;;8.24;54.63;100522.69;1720358;83;21192;-66
2021/01/22 11:29:25;;;;;;;11.63;6.85;;;;;;;8.28;54.89;100526.61;1722782;82;21123;-66
2021/01/22 11:31:53;;;;;;;11.22;6.67;;;;;;;8.30;54.76;100516.14;1718623;83;21182;-68
2021/01/22 11:34:20;;;;;;;9.95;6.25;;;;;;;8.31;54.97;100517.89;1732733;82;21230;-68
2021/01/22 11:36:48;;;;;;;13.18;7.28;;;;;;;8.33;54.82;100509.58;1721478;82;21614;-65
2021/01/22 11:39:16;;;;;;;11.40;7.08;;;;;;;8.28;55.04;100513.50;1730002;82;21273;-65